Time;durP1;ratioP1;P1;durP2;ratioP2;P2;SDS_P1;SDS_P2;PMS_P1;PMS_P2;Temp;Humidity;BMP_temperature;BMP_pressure;BME280_temperature;BME280_humidity;BME280_pressure;Samples;Min_cycle;Max_cycle;Signal;HPM_P1;HPM_P2
2020/12/15 00:05:10;;;;;;;10.13;6.00;;;;;;;8.13;73.41;99781.66;8694786;33;20633;-75
2020/12/15 00:10:31;;;;;;;11.48;6.13;;;;;;;8.06;73.48;99759.06;8698197;33;20148;-75
2020/12/15 00:15:52;;;;;;;7.40;5.40;;;;;;;8.19;72.99;99782.09;8640852;34;20440;-76
2020/12/15 00:21:20;;;;;;;7.25;5.60;;;;;;;8.27;72.28;99778.06;8640673;34;20571;-76
2020/12/15 00:26:41;;;;;;;9.85;6.18;;;;;;;8.26;72.16;99761.25;8641287;34;20638;-75
2020/12/15 00:32:03;;;;;;;9.73;5.88;;;;;;;8.20;72.39;99756.31;8640705;34;20441;-76
2020/12/15 00:37:25;;;;;;;9.65;6.18;;;;;;;8.29;71.98;99754.88;8640641;34;20150;-75
2020/12/15 00:42:46;;;;;;;9.05;6.47;;;;;;;8.27;72.17;99762.97;8639752;34;20188;-76
2020/12/15 00:48:07;;;;;;;9.13;6.00;;;;;;;8.31;72.53;99759.16;8620097;34;20145;-76
2020/12/15 00:53:29;;;;;;;10.65;5.53;;;;;;;8.29;72.13;99766.38;8619452;34;20543;-76
2020/12/15 00:58:50;;;;;;;8.38;5.07;;;;;;;8.31;72.17;99771.56;8639983;34;20444;-76
2020/12/15 01:04:11;;;;;;;9.02;5.82;;;;;;;8.31;72.37;99769.78;8619549;34;20145;-76
2020/12/15 01:09:34;;;;;;;10.88;5.47;;;;;;;8.37;72.65;99774.69;8618817;34;20146;-76
2020/12/15 01:14:37;;;;;;;9.77;6.07;;;;;;;8.38;72.92;99765.75;8673179;33;20526;-75
2020/12/15 01:19:40;;;;;;;7.30;5.20;;;;;;;8.36;73.33;99746.34;8695276;33;20259;-76
2020/12/15 01:24:44;;;;;;;9.68;6.20;;;;;;;8.30;73.70;99741.44;8696556;33;20149;-76
2020/12/15 01:30:04;;;;;;;12.07;5.88;;;;;;;8.31;74.03;99742.31;8695231;33;20148;-75
2020/12/15 01:35:25;;;;;;;9.23;5.97;;;;;;;8.28;74.15;99747.84;8696484;33;20160;-76
2020/12/15 01:40:28;;;;;;;11.27;6.03;;;;;;;8.21;74.39;99756.22;8695915;33;20914;-75
2020/12/15 01:45:31;;;;;;;10.02;5.97;;;;;;;8.29;74.17;99750.41;8694893;33;20149;-76
2020/12/15 01:50:35;;;;;;;7.70;5.50;;;;;;;8.28;74.18;99756.66;8718093;33;20436;-76
2020/12/15 01:55:39;;;;;;;10.40;6.07;;;;;;;8.36;74.25;99751.69;8696146;33;21062;-76
2020/12/15 02:00:46;;;;;;;9.88;5.80;;;;;;;8.40;74.29;99752.38;8696461;33;20152;-75
2020/12/15 02:05:52;;;;;;;8.27;5.05;;;;;;;8.40;74.49;99734.59;8696153;33;20180;-76
2020/12/15 02:10:56;;;;;;;7.45;5.20;;;;;;;8.44;74.44;99735.22;8695742;33;20723;-76
2020/12/15 02:16:03;;;;;;;9.10;5.72;;;;;;;8.46;74.65;99730.66;8694638;33;20149;-76
2020/12/15 02:21:07;;;;;;;12.10;5.65;;;;;;;8.45;75.00;99728.97;8693781;33;20219;-76
2020/12/15 02:26:21;;;;;;;8.95;6.00;;;;;;;8.48;74.97;99736.72;8717837;33;20152;-76
2020/12/15 02:31:24;;;;;;;8.55;5.35;;;;;;;8.55;74.05;99734.50;8716869;33;20435;-76
2020/12/15 02:36:28;;;;;;;9.27;5.95;;;;;;;8.63;73.81;99729.50;8717499;33;20530;-76
2020/12/15 02:41:53;;;;;;;9.13;5.78;;;;;;;8.74;73.40;99731.41;8717013;33;20156;-76
2020/12/15 02:46:59;;;;;;;9.82;6.22;;;;;;;8.78;73.78;99736.44;8694072;33;20577;-76
2020/12/15 02:52:06;;;;;;;9.52;5.20;;;;;;;8.77;73.50;99740.03;8716748;33;20675;-75
2020/12/15 02:57:16;;;;;;;8.18;6.10;;;;;;;8.73;73.50;99737.72;8693951;33;20421;-76
2020/12/15 03:02:20;;;;;;;9.68;6.07;;;;;;;8.76;73.37;99750.81;8716497;33;20141;-76
2020/12/15 03:07:29;;;;;;;7.93;5.68;;;;;;;8.76;73.32;99748.16;8717096;33;20149;-75
2020/12/15 03:12:35;;;;;;;7.60;4.95;;;;;;;8.81;73.10;99757.53;8716508;33;20152;-76
2020/12/15 03:17:38;;;;;;;7.88;5.30;;;;;;;8.83;72.88;99750.28;8693312;33;20672;-76
2020/12/15 03:22:42;;;;;;;8.95;5.75;;;;;;;8.88;72.69;99755.25;8669480;33;20926;-75
2020/12/15 03:27:47;;;;;;;8.90;5.57;;;;;;;8.92;72.61;99758.59;8673949;33;20443;-76
2020/12/15 03:32:58;;;;;;;9.02;5.32;;;;;;;8.81;73.17;99760.19;8646996;33;20164;-75
2020/12/15 03:38:02;;;;;;;9.77;5.85;;;;;;;8.80;73.44;99762.94;8669791;33;20664;-76
2020/12/15 03:43:13;;;;;;;9.43;6.30;;;;;;;8.79;73.33;99766.56;8673996;33;20157;-75
2020/12/15 03:48:30;;;;;;;9.43;6.38;;;;;;;8.80;73.63;99763.81;8675008;33;20435;-76
2020/12/15 03:53:33;;;;;;;11.20;6.47;;;;;;;8.80;73.94;99755.81;8674058;33;20919;-76
2020/12/15 03:58:37;;;;;;;11.27;6.35;;;;;;;8.77;74.34;99750.69;8674539;33;20821;-74
2020/12/15 04:03:44;;;;;;;11.32;6.57;;;;;;;8.70;75.58;99762.75;8674362;33;20871;-75
2020/12/15 04:08:53;;;;;;;11.63;6.32;;;;;;;8.60;76.25;99759.84;8674509;33;20157;-75
2020/12/15 04:13:56;;;;;;;13.02;6.70;;;;;;;8.54;76.94;99754.09;8697989;33;20153;-76
2020/12/15 04:18:59;;;;;;;11.65;6.80;;;;;;;8.43;78.41;99757.50;8673745;33;20149;-75
2020/12/15 04:24:04;;;;;;;10.43;6.22;;;;;;;8.29;80.00;99769.03;8673999;33;20153;-76
2020/12/15 04:29:14;;;;;;;12.32;7.05;;;;;;;8.11;81.50;99772.91;8696670;33;20291;-76
2020/12/15 04:34:29;;;;;;;11.98;7.03;;;;;;;7.94;82.67;99766.91;8673821;33;20475;-76
2020/12/15 04:39:32;;;;;;;12.77;7.65;;;;;;;7.90;83.37;99764.53;8673543;33;20144;-76
2020/12/15 04:44:36;;;;;;;10.85;7.25;;;;;;;7.90;83.81;99775.16;8673464;33;20160;-76
2020/12/15 04:49:58;;;;;;;14.68;8.15;;;;;;;7.89;83.85;99774.31;8672879;33;20659;-77
2020/12/15 04:55:02;;;;;;;15.90;8.68;;;;;;;7.90;84.30;99767.19;8673202;33;20172;-75
2020/12/15 05:00:14;;;;;;;12.70;7.30;;;;;;;7.93;84.46;99775.84;8672682;33;20807;-76
2020/12/15 05:05:39;;;;;;;13.35;8.38;;;;;;;7.95;84.52;99783.72;8673230;33;20152;-76
2020/12/15 05:10:42;;;;;;;18.25;8.50;;;;;;;7.91;84.26;99783.06;8673122;33;20153;-76
2020/12/15 05:16:37;;;;;;;16.25;8.15;;;;;;;7.95;84.30;99776.59;8622792;34;20149;-77
2020/12/15 05:22:00;;;;;;;14.60;8.05;;;;;;;7.95;84.27;99781.94;8640969;34;20183;-75
2020/12/15 05:27:16;;;;;;;18.20;9.18;;;;;;;7.94;84.25;99776.69;8641832;34;20654;-77
2020/12/15 05:32:36;;;;;;;16.70;9.13;;;;;;;7.89;84.66;99774.31;8622827;34;20149;-76
2020/12/15 05:38:01;;;;;;;15.27;8.93;;;;;;;7.90;85.10;99769.84;8644276;34;20642;-78
2020/12/15 05:43:27;;;;;;;13.82;8.23;;;;;;;7.88;84.97;99780.59;8646944;34;20251;-78
2020/12/15 05:48:36;;;;;;;18.55;9.98;;;;;;;7.89;85.13;99781.47;8618941;34;20204;-78
2020/12/15 05:53:39;;;;;;;17.33;9.85;;;;;;;7.89;85.38;99781.47;8618873;34;20239;-78
2020/12/15 05:58:41;;;;;;;19.25;10.15;;;;;;;7.92;85.35;99778.59;8598196;34;20215;-78
2020/12/15 06:03:56;;;;;;;21.83;10.60;;;;;;;7.93;85.47;99788.28;8642187;34;20154;-75
2020/12/15 06:09:00;;;;;;;19.77;10.23;;;;;;;7.95;85.65;99791.69;8645121;34;20510;-77
2020/12/15 06:14:02;;;;;;;23.25;10.05;;;;;;;7.93;85.69;99785.63;8653674;33;20150;-77
2020/12/15 06:19:08;;;;;;;25.63;11.13;;;;;;;7.89;85.72;99786.78;8676828;33;20156;-78
2020/12/15 06:24:10;;;;;;;21.50;11.70;;;;;;;7.79;85.79;99787.38;8702140;33;20165;-77
2020/12/15 06:29:12;;;;;;;20.80;10.63;;;;;;;7.73;85.93;99781.59;8675052;33;20153;-77
2020/12/15 06:34:25;;;;;;;23.58;11.88;;;;;;;7.74;85.83;99786.81;8696658;33;20164;-77
2020/12/15 06:39:30;;;;;;;23.05;12.73;;;;;;;7.78;85.89;99787.47;8694729;33;20160;-77
2020/12/15 06:44:35;;;;;;;24.48;12.13;;;;;;;7.78;85.65;99790.13;8695476;33;20153;-77
2020/12/15 06:49:39;;;;;;;20.63;11.82;;;;;;;7.88;85.73;99803.69;8695081;33;20297;-77
2020/12/15 06:54:42;;;;;;;24.55;12.05;;;;;;;7.88;85.65;99803.69;8694537;33;20735;-77
2020/12/15 06:59:49;;;;;;;25.73;11.65;;;;;;;7.96;85.46;99807.56;8694545;33;21052;-77
2020/12/15 07:04:54;;;;;;;24.60;12.85;;;;;;;7.90;85.41;99810.63;8670813;33;20468;-77
2020/12/15 07:09:58;;;;;;;22.15;11.55;;;;;;;7.97;85.28;99817.22;8694278;33;20230;-77
2020/12/15 07:15:00;;;;;;;28.33;13.10;;;;;;;8.01;85.30;99809.94;8694060;33;20165;-77
2020/12/15 07:20:04;;;;;;;26.77;12.95;;;;;;;8.06;85.35;99814.94;8693565;33;20619;-76
2020/12/15 07:25:06;;;;;;;26.00;12.80;;;;;;;8.14;85.30;99809.97;8698763;33;20209;-76
2020/12/15 07:30:10;;;;;;;28.30;14.05;;;;;;;8.20;85.31;99815.75;8693941;33;20165;-77
2020/12/15 07:35:17;;;;;;;38.08;17.17;;;;;;;8.25;85.35;99812.75;8669554;33;20238;-77
2020/12/15 07:40:20;;;;;;;42.08;17.77;;;;;;;8.44;85.65;99818.59;8693432;33;20540;-76
2020/12/15 07:45:24;;;;;;;39.15;18.17;;;;;;;8.64;84.90;99827.06;8693372;33;20156;-76
2020/12/15 07:50:29;;;;;;;28.50;12.90;;;;;;;8.73;85.00;99817.59;8693717;33;20149;-77
2020/12/15 07:55:32;;;;;;;20.48;10.15;;;;;;;8.91;85.18;99837.63;8693934;33;20151;-77
2020/12/15 08:00:36;;;;;;;19.38;10.80;;;;;;;8.96;84.46;99818.69;8693695;33;20431;-77
2020/12/15 08:05:40;;;;;;;16.70;8.80;;;;;;;9.04;84.04;99848.31;8694110;33;20153;-77
2020/12/15 08:10:42;;;;;;;17.17;9.63;;;;;;;9.07;83.95;99837.44;8693097;33;20164;-76
2020/12/15 08:15:45;;;;;;;19.05;10.00;;;;;;;9.16;83.85;99827.94;8693122;33;20145;-77
2020/12/15 08:20:58;;;;;;;18.25;10.48;;;;;;;9.15;83.48;99840.41;8691669;33;20141;-77
2020/12/15 08:26:19;;;;;;;14.80;9.38;;;;;;;9.22;82.72;99839.03;8694357;33;20153;-76
2020/12/15 08:31:23;;;;;;;18.88;10.73;;;;;;;9.25;82.29;99840.66;8697478;33;20589;-77
2020/12/15 08:36:26;;;;;;;17.60;9.85;;;;;;;9.45;82.54;99845.41;8673969;33;20180;-76
2020/12/15 08:41:28;;;;;;;16.45;9.65;;;;;;;9.54;82.58;99846.56;8696859;33;20161;-75
2020/12/15 08:46:35;;;;;;;19.27;9.93;;;;;;;9.56;82.47;99842.00;8673492;33;20606;-76
2020/12/15 08:51:40;;;;;;;20.73;11.18;;;;;;;9.39;82.09;99853.00;8696839;33;20148;-76
2020/12/15 08:56:43;;;;;;;19.52;10.95;;;;;;;9.28;82.33;99861.75;8696919;33;20153;-76
2020/12/15 09:01:46;;;;;;;21.45;11.35;;;;;;;9.25;82.46;99853.97;8696306;33;20193;-76
2020/12/15 09:06:50;;;;;;;21.67;12.30;;;;;;;9.24;82.55;99852.25;8697086;33;20160;-75
2020/12/15 09:11:54;;;;;;;21.77;11.88;;;;;;;9.24;82.97;99855.78;8672240;33;20218;-76
2020/12/15 09:16:57;;;;;;;21.77;12.13;;;;;;;9.29;83.54;99852.78;8695795;33;21110;-76
2020/12/15 09:22:06;;;;;;;22.33;10.77;;;;;;;9.27;82.91;99858.25;8696490;33;20153;-76
2020/12/15 09:27:19;;;;;;;25.88;11.65;;;;;;;9.16;82.79;99874.13;8672614;33;20144;-76
2020/12/15 09:32:21;;;;;;;21.45;11.48;;;;;;;9.09;82.66;99871.00;8696512;33;20739;-77
2020/12/15 09:37:24;;;;;;;21.50;11.70;;;;;;;9.11;82.99;99870.91;8695486;33;20298;-76
2020/12/15 09:42:27;;;;;;;22.10;11.25;;;;;;;9.03;82.79;99873.25;8695845;33;20222;-77
2020/12/15 09:47:30;;;;;;;22.65;12.13;;;;;;;9.03;83.05;99855.47;8696144;33;20145;-77
2020/12/15 09:52:34;;;;;;;20.23;10.57;;;;;;;9.12;83.26;99851.28;8695737;33;20432;-77
2020/12/15 09:57:41;;;;;;;22.38;11.95;;;;;;;9.16;83.54;99866.13;8696154;33;20465;-76
2020/12/15 10:02:43;;;;;;;21.15;11.10;;;;;;;9.17;83.42;99888.31;8695306;33;20191;-75
2020/12/15 10:07:46;;;;;;;20.60;10.90;;;;;;;9.13;83.29;99869.88;8695635;33;20153;-76
2020/12/15 10:12:49;;;;;;;19.88;10.65;;;;;;;9.28;83.86;99883.06;8695203;33;20513;-76
2020/12/15 10:17:54;;;;;;;21.45;10.32;;;;;;;9.30;83.70;99887.34;8695326;33;20266;-75
2020/12/15 10:22:57;;;;;;;20.23;11.15;;;;;;;9.41;83.82;99893.75;8694837;33;20706;-76
2020/12/15 10:27:59;;;;;;;22.70;11.68;;;;;;;9.31;83.17;99902.38;8695020;33;20222;-75
2020/12/15 10:33:02;;;;;;;22.23;11.30;;;;;;;9.30;83.12;99905.16;8694544;33;20675;-76
2020/12/15 10:38:05;;;;;;;21.77;11.32;;;;;;;9.34;83.50;99902.16;8694686;33;20151;-74
2020/12/15 10:43:07;;;;;;;20.50;11.10;;;;;;;9.31;83.74;99921.03;8670299;33;20267;-76
2020/12/15 10:48:10;;;;;;;16.65;9.10;;;;;;;9.34;84.04;99922.63;8694162;33;20865;-77
2020/12/15 10:53:14;;;;;;;19.17;10.10;;;;;;;9.31;84.52;99913.03;8693880;33;20144;-77
2020/12/15 10:58:16;;;;;;;19.58;10.82;;;;;;;9.33;84.79;99910.28;8695142;33;20145;-77
2020/12/15 11:03:18;;;;;;;20.05;11.57;;;;;;;9.25;85.10;99908.13;8672783;33;20152;-77
2020/12/15 11:08:22;;;;;;;20.95;10.20;;;;;;;9.25;85.64;99905.47;8700101;33;21057;-77
2020/12/15 11:13:24;;;;;;;21.88;11.32;;;;;;;9.36;85.80;99891.41;8676651;33;20144;-79
2020/12/15 11:18:26;;;;;;;20.40;11.23;;;;;;;9.49;86.12;99896.72;8702238;33;20160;-79
2020/12/15 11:23:30;;;;;;;19.73;11.02;;;;;;;9.56;85.82;99893.50;8703563;33;20184;-78
2020/12/15 11:28:45;;;;;;;22.50;10.95;;;;;;;9.59;86.10;99892.44;8705812;33;20148;-78
2020/12/15 11:33:48;;;;;;;21.58;10.95;;;;;;;9.57;86.28;99889.03;8709208;33;20129;-78
2020/12/15 11:38:51;;;;;;;21.83;11.82;;;;;;;9.55;86.26;99888.28;8740977;33;20163;-78
2020/12/15 11:43:54;;;;;;;19.40;11.18;;;;;;;9.52;86.30;99884.03;8740419;33;20129;-79
2020/12/15 11:48:56;;;;;;;25.30;12.63;;;;;;;9.52;86.44;99891.19;8741369;33;20125;-77
2020/12/15 11:53:59;;;;;;;23.92;12.02;;;;;;;9.58;86.31;99896.06;8744463;33;20156;-77
2020/12/15 11:59:01;;;;;;;22.77;12.25;;;;;;;9.56;86.46;99890.00;8743825;33;20153;-76
2020/12/15 12:04:04;;;;;;;22.40;12.77;;;;;;;9.57;86.57;99892.56;8722770;33;20331;-77
2020/12/15 12:09:07;;;;;;;21.60;12.45;;;;;;;9.65;86.69;99896.47;8721661;33;20129;-76
2020/12/15 12:14:09;;;;;;;22.83;12.05;;;;;;;9.62;86.65;99892.22;8734397;33;20145;-77
2020/12/15 12:19:12;;;;;;;25.48;11.68;;;;;;;9.51;86.42;99898.31;8698383;33;20243;-77
2020/12/15 12:24:15;;;;;;;25.58;11.85;;;;;;;9.49;86.67;99902.06;8697841;33;20234;-77
2020/12/15 12:29:18;;;;;;;25.92;12.38;;;;;;;9.51;86.61;99905.47;8697559;33;21082;-77
2020/12/15 12:34:20;;;;;;;22.30;12.10;;;;;;;9.51;86.51;99897.47;8697902;33;20637;-76
2020/12/15 12:39:23;;;;;;;26.60;13.60;;;;;;;9.55;86.75;99897.16;8697208;33;20174;-76
2020/12/15 12:44:26;;;;;;;24.88;13.20;;;;;;;9.58;86.80;99896.06;8673464;33;20438;-77
2020/12/15 12:49:28;;;;;;;24.75;12.73;;;;;;;9.54;86.60;99895.44;8673250;33;20152;-78
2020/12/15 12:54:31;;;;;;;25.80;13.23;;;;;;;9.52;86.66;99897.38;8697108;33;20153;-78
2020/12/15 12:59:34;;;;;;;27.35;13.30;;;;;;;9.55;86.43;99906.97;8696995;33;20430;-76
2020/12/15 13:04:36;;;;;;;29.02;14.27;;;;;;;9.53;86.56;99901.72;8697088;33;20669;-79
2020/12/15 13:09:40;;;;;;;30.65;14.10;;;;;;;9.53;86.67;99904.38;8696668;33;20236;-77
2020/12/15 13:14:43;;;;;;;21.95;12.55;;;;;;;9.53;86.77;99909.72;8740521;28;20239;-74
2020/12/15 13:19:45;;;;;;;26.02;14.57;;;;;;;9.50;86.45;99923.28;8754557;33;20144;-75
2020/12/15 13:24:49;;;;;;;28.42;14.45;;;;;;;9.45;86.58;99925.41;8709751;33;20238;-74
2020/12/15 13:29:52;;;;;;;30.02;14.60;;;;;;;9.45;86.64;99933.41;8695787;33;20218;-76
2020/12/15 13:34:54;;;;;;;32.03;15.57;;;;;;;9.46;86.62;99934.25;8671682;33;20149;-74
2020/12/15 13:39:57;;;;;;;30.35;14.60;;;;;;;9.51;86.71;99943.63;8695241;33;20199;-75
2020/12/15 13:45:00;;;;;;;30.80;15.35;;;;;;;9.51;86.79;99940.97;8671813;33;20641;-75
2020/12/15 13:50:04;;;;;;;28.67;14.60;;;;;;;9.46;86.65;99947.59;8671357;33;20728;-74
2020/12/15 13:55:07;;;;;;;36.28;19.42;;;;;;;9.49;86.68;99952.75;8695663;33;20240;-75
2020/12/15 14:00:09;;;;;;;32.15;16.02;;;;;;;9.52;86.84;99955.19;8694876;33;20152;-75
2020/12/15 14:05:12;;;;;;;27.73;14.82;;;;;;;9.55;86.95;99947.81;8696076;33;21067;-75
2020/12/15 14:10:15;;;;;;;26.60;13.40;;;;;;;9.55;86.79;99952.31;8697201;33;20659;-75
2020/12/15 14:15:17;;;;;;;28.17;12.68;;;;;;;9.54;86.90;99947.91;8696255;33;20207;-76
2020/12/15 14:20:20;;;;;;;37.63;18.15;;;;;;;9.51;86.95;99951.63;8696587;33;20358;-75
2020/12/15 14:25:23;;;;;;;28.60;15.73;;;;;;;9.57;86.99;99969.03;8694655;33;20215;-75
2020/12/15 14:30:25;;;;;;;22.90;12.68;;;;;;;9.53;86.99;99968.41;8694665;33;20210;-75
2020/12/15 14:35:28;;;;;;;28.58;14.98;;;;;;;9.56;87.03;99972.66;8694271;33;20474;-75
2020/12/15 14:40:31;;;;;;;25.20;13.63;;;;;;;9.61;87.51;99975.03;8693771;33;20170;-74
2020/12/15 14:45:33;;;;;;;23.17;12.98;;;;;;;9.61;87.13;99972.34;8694075;33;20190;-74
2020/12/15 14:50:36;;;;;;;24.27;13.32;;;;;;;9.63;87.21;99984.63;8669657;33;20423;-74
2020/12/15 14:55:39;;;;;;;29.83;15.63;;;;;;;9.62;87.22;99990.91;8693569;33;20238;-75
2020/12/15 15:00:41;;;;;;;22.98;13.27;;;;;;;9.65;87.36;99997.84;8693427;33;20145;-74
2020/12/15 15:05:43;;;;;;;30.73;13.45;;;;;;;9.67;87.23;100007.44;8693476;33;20184;-74
2020/12/15 15:10:47;;;;;;;22.58;12.75;;;;;;;9.69;87.15;100010.88;8693695;33;20520;-73
2020/12/15 15:15:49;;;;;;;22.42;11.50;;;;;;;9.69;87.24;100010.03;8693314;33;20141;-74
2020/12/15 15:20:51;;;;;;;26.67;13.10;;;;;;;9.70;87.42;99995.72;8692890;33;20141;-74
2020/12/15 15:25:54;;;;;;;25.60;12.57;;;;;;;9.70;87.45;99995.72;8668708;33;20690;-74
2020/12/15 15:30:57;;;;;;;32.78;16.35;;;;;;;9.71;87.40;100000.97;8693048;33;20718;-73
2020/12/15 15:35:59;;;;;;;21.83;12.07;;;;;;;9.72;87.40;100012.47;8692735;33;20149;-73
2020/12/15 15:41:03;;;;;;;23.52;11.85;;;;;;;9.74;87.55;100022.09;8692579;33;20429;-73
2020/12/15 15:46:05;;;;;;;25.02;11.63;;;;;;;9.73;87.49;100031.03;8692613;33;20160;-73
2020/12/15 15:51:07;;;;;;;23.80;11.30;;;;;;;9.76;87.54;100028.16;8691911;33;20153;-73
2020/12/15 15:56:10;;;;;;;17.73;10.35;;;;;;;9.80;87.46;100032.31;8692500;33;20451;-73
2020/12/15 16:01:13;;;;;;;18.90;10.70;;;;;;;9.84;87.62;100042.78;8667778;33;20459;-73
2020/12/15 16:06:15;;;;;;;16.33;9.27;;;;;;;9.88;87.64;100046.97;8692666;33;20153;-73
2020/12/15 16:11:18;;;;;;;18.98;9.48;;;;;;;9.93;87.69;100042.16;8692189;33;20276;-73
2020/12/15 16:16:21;;;;;;;15.68;8.85;;;;;;;9.91;87.69;100050.25;8692640;33;20640;-73
2020/12/15 16:21:24;;;;;;;17.35;10.23;;;;;;;9.94;87.75;100058.03;8691701;33;20156;-73
2020/12/15 16:26:27;;;;;;;16.98;9.25;;;;;;;9.99;88.24;100063.06;8692067;33;20188;-73
2020/12/15 16:31:43;;;;;;;17.48;8.52;;;;;;;9.96;88.22;100076.63;8691694;33;20244;-73
2020/12/15 16:36:50;;;;;;;14.80;8.63;;;;;;;10.07;87.69;100078.56;8692068;33;20242;-73
2020/12/15 16:41:53;;;;;;;14.85;8.20;;;;;;;10.08;87.97;100082.94;8691392;33;20206;-73
2020/12/15 16:46:57;;;;;;;18.00;8.80;;;;;;;10.03;88.09;100084.09;8692695;33;20634;-73
2020/12/15 16:51:59;;;;;;;14.52;8.23;;;;;;;10.01;88.14;100091.38;8698495;33;20525;-73
2020/12/15 16:57:02;;;;;;;14.65;8.18;;;;;;;10.06;87.86;100099.03;8696542;33;20322;-73
2020/12/15 17:02:12;;;;;;;18.75;9.35;;;;;;;10.09;87.91;100101.53;8695951;33;20167;-73
2020/12/15 17:07:14;;;;;;;17.25;9.75;;;;;;;10.11;87.97;100109.41;8696488;33;20546;-73
2020/12/15 17:12:17;;;;;;;17.55;9.02;;;;;;;10.08;88.09;100121.16;8695897;33;20156;-73
2020/12/15 17:17:20;;;;;;;14.88;8.90;;;;;;;10.06;88.40;100131.06;8695972;33;21037;-73
2020/12/15 17:22:25;;;;;;;16.27;9.48;;;;;;;10.02;88.40;100134.91;8695463;33;20326;-73
2020/12/15 17:27:28;;;;;;;17.83;9.65;;;;;;;10.16;88.06;100141.97;8695971;33;20641;-73
2020/12/15 17:32:31;;;;;;;17.27;10.25;;;;;;;10.17;88.28;100141.84;8695724;33;20390;-73
2020/12/15 17:37:33;;;;;;;19.63;10.15;;;;;;;10.19;88.11;100155.97;8671579;33;20156;-73
2020/12/15 17:42:36;;;;;;;19.85;10.82;;;;;;;10.13;88.38;100160.88;8695553;33;20161;-75
2020/12/15 17:47:39;;;;;;;20.30;11.13;;;;;;;10.23;87.91;100160.16;8695601;33;20141;-73
2020/12/15 17:52:42;;;;;;;18.60;9.50;;;;;;;10.21;88.18;100158.53;8670976;33;20163;-74
2020/12/15 17:57:45;;;;;;;20.08;10.05;;;;;;;10.28;88.20;100164.34;8670237;33;21005;-73
2020/12/15 18:02:48;;;;;;;17.45;9.40;;;;;;;10.32;87.99;100173.84;8694384;33;20153;-73
2020/12/15 18:07:50;;;;;;;18.63;11.23;;;;;;;10.34;87.82;100180.81;8696224;33;20179;-72
2020/12/15 18:12:53;;;;;;;22.23;11.77;;;;;;;10.35;87.98;100184.31;8671676;33;20144;-73
2020/12/15 18:18:00;;;;;;;18.83;10.15;;;;;;;10.32;88.05;100205.91;8695848;33;20156;-73
2020/12/15 18:23:08;;;;;;;21.77;10.80;;;;;;;10.28;88.40;100201.72;8695430;33;20461;-72
2020/12/15 18:28:16;;;;;;;20.38;10.43;;;;;;;10.35;87.94;100200.34;8695741;33;20230;-72
2020/12/15 18:33:23;;;;;;;21.80;11.20;;;;;;;10.22;88.38;100208.28;8694925;33;20144;-73
2020/12/15 18:38:30;;;;;;;26.05;11.45;;;;;;;10.19;88.54;100216.53;8695397;33;20256;-72
2020/12/15 18:43:39;;;;;;;24.58;11.75;;;;;;;10.32;88.50;100225.44;8694777;33;20438;-72
2020/12/15 18:48:46;;;;;;;26.38;12.23;;;;;;;10.33;88.28;100232.47;8695389;33;20652;-72
2020/12/15 18:53:53;;;;;;;25.55;12.38;;;;;;;10.45;88.04;100238.81;8694257;33;20149;-72
2020/12/15 18:59:02;;;;;;;27.80;12.05;;;;;;;10.42;87.95;100255.03;8670548;33;20476;-72
2020/12/15 19:04:10;;;;;;;27.60;14.20;;;;;;;10.36;88.45;100264.31;8694635;33;20148;-72
2020/12/15 19:09:18;;;;;;;30.25;13.32;;;;;;;10.43;88.06;100267.44;8694079;33;20153;-72
2020/12/15 19:14:26;;;;;;;29.70;13.18;;;;;;;10.40;88.25;100273.84;8764875;28;20253;-73
2020/12/15 19:19:33;;;;;;;28.52;12.93;;;;;;;10.48;88.12;100281.34;8810808;33;20142;-75
2020/12/15 19:24:40;;;;;;;26.67;12.98;;;;;;;10.53;87.75;100294.38;8810801;33;20151;-74
2020/12/15 19:29:48;;;;;;;28.38;12.75;;;;;;;10.43;87.83;100295.00;8810540;33;20152;-74
2020/12/15 19:34:55;;;;;;;30.27;12.82;;;;;;;10.52;87.78;100295.34;8810914;33;20151;-74
2020/12/15 19:40:05;;;;;;;28.48;13.15;;;;;;;10.45;88.18;100302.91;8810516;33;20162;-73
2020/12/15 19:45:14;;;;;;;26.45;12.93;;;;;;;10.42;88.09;100298.63;8810811;33;21022;-74
2020/12/15 19:50:21;;;;;;;27.35;12.80;;;;;;;10.34;88.81;100297.41;8785660;33;20145;-74
2020/12/15 19:55:29;;;;;;;28.13;12.85;;;;;;;10.54;87.86;100296.94;8810448;33;20140;-74
2020/12/15 20:00:33;;;;;;;29.75;13.88;;;;;;;10.55;88.15;100303.13;8810535;33;20763;-73
2020/12/15 20:05:40;;;;;;;30.77;15.18;;;;;;;10.41;88.47;100310.25;8811714;33;20636;-74
2020/12/15 20:10:47;;;;;;;34.55;15.60;;;;;;;10.45;88.46;100309.13;8811336;33;20162;-75
2020/12/15 20:15:55;;;;;;;36.58;16.15;;;;;;;10.47;88.21;100309.00;8811711;33;20174;-74
2020/12/15 20:21:07;;;;;;;33.28;14.10;;;;;;;10.56;88.10;100315.53;8812327;33;20158;-74
2020/12/15 20:26:14;;;;;;;33.80;14.80;;;;;;;10.54;88.24;100322.81;8817085;33;20544;-74
2020/12/15 20:31:22;;;;;;;38.33;16.70;;;;;;;10.44;88.40;100330.56;8816638;33;20678;-76
2020/12/15 20:36:30;;;;;;;42.75;17.10;;;;;;;10.50;88.37;100332.81;8816387;33;20443;-74
2020/12/15 20:41:37;;;;;;;39.42;17.38;;;;;;;10.62;88.00;100344.50;8815714;33;20617;-72
2020/12/15 20:46:45;;;;;;;40.97;16.80;;;;;;;10.48;88.75;100334.75;8790657;33;20440;-74
2020/12/15 20:51:48;;;;;;;41.28;17.60;;;;;;;10.63;88.16;100343.53;8767332;33;20143;-74
2020/12/15 20:56:56;;;;;;;37.75;16.67;;;;;;;10.59;88.15;100348.25;8815284;33;20301;-73
2020/12/15 21:02:05;;;;;;;40.10;15.52;;;;;;;10.60;88.05;100349.09;8815013;33;20923;-73
2020/12/15 21:07:12;;;;;;;38.75;16.27;;;;;;;10.52;87.93;100362.13;8815793;33;20148;-73
2020/12/15 21:12:19;;;;;;;41.67;16.38;;;;;;;10.59;87.84;100363.44;8816051;33;20150;-75
2020/12/15 21:17:30;;;;;;;39.17;17.80;;;;;;;10.56;87.70;100364.50;8815072;33;20350;-74
2020/12/15 21:22:38;;;;;;;40.40;17.75;;;;;;;10.56;87.58;100375.19;8814301;33;20150;-73
2020/12/15 21:27:45;;;;;;;40.97;16.35;;;;;;;10.44;87.94;100378.66;8789195;33;20709;-73
2020/12/15 21:32:53;;;;;;;37.00;15.10;;;;;;;10.44;87.80;100379.50;8813099;33;20173;-74
2020/12/15 21:37:55;;;;;;;41.97;16.77;;;;;;;10.48;87.69;100390.84;8813695;33;20170;-74
2020/12/15 21:42:58;;;;;;;41.03;16.50;;;;;;;10.49;87.48;100394.38;8813092;33;20718;-74
2020/12/15 21:48:02;;;;;;;43.13;17.17;;;;;;;10.40;87.79;100395.84;8815859;33;20450;-74
2020/12/15 21:53:05;;;;;;;38.58;16.35;;;;;;;10.45;87.70;100409.75;8814852;33;20147;-74
2020/12/15 21:58:08;;;;;;;39.83;16.45;;;;;;;10.56;87.38;100417.03;8813807;33;21032;-74
2020/12/15 22:03:11;;;;;;;35.10;16.02;;;;;;;10.53;87.14;100439.50;8813244;33;20145;-74
2020/12/15 22:08:14;;;;;;;42.67;17.70;;;;;;;10.56;87.06;100439.28;8812937;33;20496;-74
2020/12/15 22:13:16;;;;;;;46.58;18.75;;;;;;;10.52;87.28;100440.44;8812261;33;20753;-74
2020/12/15 22:18:19;;;;;;;46.78;17.73;;;;;;;10.61;86.84;100438.97;8812206;33;20200;-74
2020/12/15 22:23:21;;;;;;;43.90;16.10;;;;;;;10.63;86.87;100439.72;8812278;33;20185;-73
2020/12/15 22:28:23;;;;;;;37.95;17.42;;;;;;;10.69;86.96;100455.34;8812450;33;20233;-75
2020/12/15 22:33:26;;;;;;;38.55;17.02;;;;;;;10.68;86.86;100459.00;8787064;33;20428;-74
2020/12/15 22:38:29;;;;;;;37.97;17.77;;;;;;;10.75;86.88;100460.31;8812208;33;20143;-75
2020/12/15 22:43:31;;;;;;;43.50;17.20;;;;;;;10.72;86.81;100462.31;8811614;33;20135;-75
2020/12/15 22:48:35;;;;;;;47.42;19.00;;;;;;;10.75;86.85;100462.97;8811720;33;20131;-75
2020/12/15 22:53:38;;;;;;;44.47;17.95;;;;;;;10.76;86.75;100475.38;8811394;33;20151;-73
2020/12/15 22:58:40;;;;;;;45.13;18.67;;;;;;;10.78;86.82;100480.63;8811498;33;20197;-73
2020/12/15 23:03:43;;;;;;;45.30;19.20;;;;;;;10.75;86.85;100480.81;8811227;33;20146;-73
2020/12/15 23:08:46;;;;;;;46.17;18.25;;;;;;;10.72;86.94;100483.69;8811288;33;20147;-73
2020/12/15 23:13:48;;;;;;;39.92;17.65;;;;;;;10.73;86.99;100490.75;8811089;33;20150;-72
2020/12/15 23:18:51;;;;;;;48.03;18.48;;;;;;;10.77;86.93;100506.47;8811294;33;20152;-73
2020/12/15 23:23:53;;;;;;;46.72;19.02;;;;;;;10.77;87.04;100518.97;8810911;33;20242;-72
2020/12/15 23:28:56;;;;;;;39.97;18.13;;;;;;;10.75;86.79;100516.44;8810863;33;20449;-74
2020/12/15 23:33:59;;;;;;;38.53;16.60;;;;;;;10.78;86.99;100518.91;8810833;33;20672;-74
2020/12/15 23:39:01;;;;;;;44.42;19.23;;;;;;;10.80;87.04;100524.13;8810267;33;20219;-73
2020/12/15 23:44:03;;;;;;;44.50;19.55;;;;;;;10.84;87.09;100523.84;8810517;33;20254;-75